Time;durP1;ratioP1;P1;durP2;ratioP2;P2;SDS_P1;SDS_P2;PMS_P1;PMS_P2;Temp;Humidity;BMP_temperature;BMP_pressure;BME280_temperature;BME280_humidity;BME280_pressure;Samples;Min_cycle;Max_cycle;Signal;HPM_P1;HPM_P2
2022/04/20 00:01:09;;;;;;;2.75;1.15;;;18.00;32.50;;;;;;6294805;28;20057;-69
2022/04/20 00:04:11;;;;;;;2.92;1.58;;;18.00;32.80;;;;;;6292063;28;20033;-69
2022/04/20 00:07:12;;;;;;;3.47;1.10;;;17.90;32.90;;;;;;6293751;28;20025;-69
2022/04/20 00:10:12;;;;;;;3.60;1.77;;;17.90;33.10;;;;;;6289446;28;20358;-69
2022/04/20 00:13:14;;;;;;;3.03;1.30;;;17.80;33.10;;;;;;6292229;28;20047;-69
2022/04/20 00:16:15;;;;;;;3.65;1.45;;;17.80;33.30;;;;;;6291785;28;20068;-69
2022/04/20 00:19:16;;;;;;;4.07;1.42;;;17.80;33.40;;;;;;6291396;28;20060;-69
2022/04/20 00:22:17;;;;;;;4.43;1.67;;;17.80;33.40;;;;;;6292722;28;20032;-71
2022/04/20 00:25:18;;;;;;;4.05;1.35;;;17.80;33.20;;;;;;6290024;28;20067;-69
2022/04/20 00:28:19;;;;;;;9.98;1.40;;;17.80;33.30;;;;;;6290443;28;20059;-69
2022/04/20 00:31:20;;;;;;;5.53;1.60;;;17.80;33.40;;;;;;6292154;28;20091;-69
2022/04/20 00:34:22;;;;;;;4.28;1.67;;;17.80;33.60;;;;;;6292178;28;20373;-69
2022/04/20 00:37:24;;;;;;;2.50;1.63;;;17.80;33.80;;;;;;6276958;28;20040;-69
2022/04/20 00:40:25;;;;;;;2.83;1.38;;;17.80;34.10;;;;;;6292963;28;20048;-70
2022/04/20 00:43:28;;;;;;;9.40;1.45;;;17.80;34.10;;;;;;6290964;28;20120;-69
2022/04/20 00:46:29;;;;;;;2.80;1.42;;;17.70;34.20;;;;;;6292291;28;20499;-70
2022/04/20 00:49:30;;;;;;;2.10;1.45;;;17.70;34.40;;;;;;6294659;28;20045;-70
2022/04/20 00:52:32;;;;;;;2.92;1.27;;;17.70;34.50;;;;;;6295942;28;20052;-69
2022/04/20 00:55:32;;;;;;;1.92;1.50;;;17.60;34.60;;;;;;6298218;28;20059;-70
2022/04/20 00:58:39;;;;;;;6.70;1.50;;;17.60;34.80;;;;;;6279297;28;20056;-69
2022/04/20 01:01:40;;;;;;;4.45;1.55;;;17.60;35.10;;;;;;6296246;28;20039;-69
2022/04/20 01:04:41;;;;;;;3.63;1.40;;;17.50;35.20;;;;;;6282626;28;20033;-70
2022/04/20 01:08:01;;;;;;;5.85;1.55;;;17.50;35.70;;;;;;6295327;28;20044;-69
2022/04/20 01:11:26;;;;;;;4.07;1.63;;;17.50;36.20;;;;;;6293509;28;20037;-69
2022/04/20 01:14:43;;;;;;;2.47;1.23;;;17.40;36.50;;;;;;6295072;28;20028;-70
2022/04/20 01:18:14;;;;;;;3.92;1.40;;;17.40;36.70;;;;;;6278660;28;20040;-70
2022/04/20 01:21:31;;;;;;;3.75;1.25;;;17.40;36.60;;;;;;6309913;28;20123;-70
2022/04/20 01:24:45;;;;;;;2.53;1.50;;;17.30;36.60;;;;;;6276742;28;20040;-70
2022/04/20 01:28:06;;;;;;;9.18;1.25;;;17.30;36.70;;;;;;6292217;28;20036;-70
2022/04/20 01:31:18;;;;;;;1.27;0.80;;;17.30;36.90;;;;;;6289354;28;20061;-70
2022/04/20 01:34:46;;;;;;;2.30;0.98;;;17.30;37.30;;;;;;6288654;28;20038;-69
2022/04/20 01:37:47;;;;;;;2.53;1.38;;;17.20;37.60;;;;;;6295194;28;20067;-69
2022/04/20 01:40:48;;;;;;;3.30;1.38;;;17.20;37.80;;;;;;6292702;28;20044;-69
2022/04/20 01:43:49;;;;;;;2.40;1.30;;;17.10;37.80;;;;;;6293983;28;20036;-70
2022/04/20 01:46:59;;;;;;;2.08;1.30;;;17.10;37.70;;;;;;6273424;28;20036;-71
2022/04/20 01:50:26;;;;;;;4.30;1.27;;;17.10;37.60;;;;;;6262170;28;20124;-69
2022/04/20 01:53:40;;;;;;;4.15;1.13;;;17.00;37.50;;;;;;6287558;28;20102;-70
2022/04/20 01:57:11;;;;;;;2.05;1.20;;;17.00;37.70;;;;;;6242089;28;20049;-69
2022/04/20 02:00:31;;;;;;;3.65;1.70;;;17.00;38.20;;;;;;6241515;28;20140;-69
2022/04/20 02:03:52;;;;;;;3.47;1.25;;;17.00;38.60;;;;;;6238069;28;20091;-70
2022/04/20 02:06:55;;;;;;;1.92;0.95;;;16.90;38.90;;;;;;6259395;28;20214;-70
2022/04/20 02:09:59;;;;;;;3.95;0.90;;;16.80;39.10;;;;;;6223872;28;20045;-69
2022/04/20 02:13:00;;;;;;;3.63;1.25;;;16.80;39.00;;;;;;6242279;28;20498;-69
2022/04/20 02:16:10;;;;;;;7.15;1.30;;;16.70;39.00;;;;;;6224615;28;20083;-69
2022/04/20 02:19:40;;;;;;;2.30;1.15;;;16.70;39.00;;;;;;6216410;28;20046;-69
2022/04/20 02:22:48;;;;;;;1.40;1.13;;;16.70;39.40;;;;;;6201412;28;20116;-69
2022/04/20 02:25:49;;;;;;;2.20;1.40;;;16.70;39.60;;;;;;6199504;28;20057;-69
2022/04/20 02:28:50;;;;;;;2.70;1.00;;;16.70;39.80;;;;;;6219929;28;20434;-70
2022/04/20 02:31:51;;;;;;;2.45;1.38;;;16.60;40.10;;;;;;6216502;28;20037;-69
2022/04/20 02:34:52;;;;;;;3.60;1.33;;;16.60;40.40;;;;;;6175701;28;20034;-69
2022/04/20 02:37:54;;;;;;;2.40;1.40;;;16.50;40.60;;;;;;6191737;28;20039;-69
2022/04/20 02:40:55;;;;;;;2.33;1.17;;;16.40;40.90;;;;;;6175333;28;20031;-70
2022/04/20 02:43:55;;;;;;;2.05;1.27;;;16.40;41.00;;;;;;6190494;28;20038;-70
2022/04/20 02:46:57;;;;;;;2.20;1.25;;;16.30;40.70;;;;;;6192809;28;20486;-69
2022/04/20 02:49:58;;;;;;;2.00;1.23;;;16.30;40.50;;;;;;6181925;28;20097;-69
2022/04/20 02:52:59;;;;;;;1.08;0.98;;;16.30;40.20;;;;;;6175342;28;20054;-70
2022/04/20 02:56:00;;;;;;;2.15;1.00;;;16.30;40.00;;;;;;6257134;28;20043;-70
2022/04/20 02:59:01;;;;;;;3.08;1.45;;;16.30;39.70;;;;;;6291680;28;20029;-69
2022/04/20 03:02:06;;;;;;;2.10;1.15;;;16.30;39.70;;;;;;6268929;28;20111;-69
2022/04/20 03:05:08;;;;;;;4.95;1.20;;;16.30;39.60;;;;;;6286767;28;20113;-69
2022/04/20 03:08:09;;;;;;;2.17;1.17;;;16.20;39.50;;;;;;6294340;28;20056;-69
2022/04/20 03:11:10;;;;;;;1.65;1.20;;;16.20;39.60;;;;;;6290289;28;20405;-69
2022/04/20 03:14:12;;;;;;;2.00;1.20;;;16.20;39.60;;;;;;6288961;28;20445;-69
2022/04/20 03:17:13;;;;;;;0.98;0.88;;;16.20;39.60;;;;;;6308706;28;20064;-69
2022/04/20 03:20:14;;;;;;;3.15;1.13;;;16.10;39.60;;;;;;6273055;28;20029;-69
2022/04/20 03:23:16;;;;;;;2.42;1.08;;;16.10;39.60;;;;;;6291822;28;20371;-69
2022/04/20 03:26:21;;;;;;;2.20;1.00;;;16.10;39.60;;;;;;6291513;28;20115;-69
2022/04/20 03:29:41;;;;;;;1.88;1.08;;;16.10;40.00;;;;;;6288585;28;20033;-69
2022/04/20 03:32:42;;;;;;;6.35;1.40;;;16.00;40.30;;;;;;6290392;28;20056;-70
2022/04/20 03:35:44;;;;;;;2.60;1.27;;;16.00;40.50;;;;;;6292618;28;20039;-69
2022/04/20 03:38:45;;;;;;;5.93;1.25;;;16.00;40.40;;;;;;6291235;28;20085;-69
2022/04/20 03:41:46;;;;;;;2.20;1.42;;;16.00;40.40;;;;;;6293172;28;20044;-69
2022/04/20 03:44:47;;;;;;;1.13;1.02;;;16.00;40.50;;;;;;6291943;28;20469;-69
2022/04/20 03:47:47;;;;;;;1.83;1.13;;;15.90;40.40;;;;;;6291432;28;20044;-69
2022/04/20 03:50:49;;;;;;;1.63;1.15;;;16.00;40.40;;;;;;6290576;28;20044;-69
2022/04/20 03:53:50;;;;;;;4.50;1.35;;;15.90;40.30;;;;;;6273014;28;20032;-69
2022/04/20 03:57:04;;;;;;;1.52;1.00;;;15.90;40.10;;;;;;6289568;28;20040;-70
2022/04/20 04:00:07;;;;;;;1.80;1.10;;;15.90;40.10;;;;;;6292148;28;20485;-69
2022/04/20 04:03:18;;;;;;;5.60;1.27;;;15.90;40.10;;;;;;6289589;28;20089;-69
2022/04/20 04:06:19;;;;;;;4.47;0.90;;;15.80;40.20;;;;;;6290749;28;20369;-70
2022/04/20 04:09:20;;;;;;;1.75;0.90;;;15.70;40.40;;;;;;6263948;28;20045;-69
2022/04/20 04:12:23;;;;;;;1.70;1.00;;;15.70;40.60;;;;;;6286050;28;20441;-70
2022/04/20 04:15:26;;;;;;;2.15;1.10;;;15.60;40.70;;;;;;6275263;28;20378;-70
2022/04/20 04:18:29;;;;;;;8.30;1.10;;;15.60;41.10;;;;;;6271769;28;20116;-69
2022/04/20 04:21:36;;;;;;;4.03;1.60;;;15.60;41.40;;;;;;6289483;28;20033;-69
2022/04/20 04:24:39;;;;;;;1.60;1.30;;;15.60;41.80;;;;;;6290703;28;20119;-70
2022/04/20 04:27:45;;;;;;;1.38;1.17;;;15.60;42.30;;;;;;6290797;28;20044;-69
2022/04/20 04:30:46;;;;;;;1.58;1.30;;;15.60;42.80;;;;;;6290763;28;20047;-69
2022/04/20 04:33:47;;;;;;;1.92;1.00;;;15.50;42.70;;;;;;6290623;28;20032;-69
2022/04/20 04:36:48;;;;;;;3.90;1.40;;;15.50;42.80;;;;;;6291672;28;20060;-69
2022/04/20 04:39:51;;;;;;;2.05;1.35;;;15.50;42.70;;;;;;6287735;28;20044;-69
2022/04/20 04:42:52;;;;;;;4.25;0.90;;;15.50;42.90;;;;;;6287685;28;20123;-70
2022/04/20 04:49:26;;;;;;;2.30;1.38;;;15.40;43.80;;;;;;6287390;28;20036;-70
2022/04/20 04:52:28;;;;;;;2.83;1.20;;;15.30;44.10;;;;;;6284731;28;20039;-70
2022/04/20 04:55:38;;;;;;;1.95;1.20;;;15.30;44.20;;;;;;6270771;28;20194;-70
2022/04/20 04:58:39;;;;;;;2.33;1.05;;;15.30;44.20;;;;;;6292525;28;20033;-69
2022/04/20 05:01:40;;;;;;;4.95;1.40;;;15.30;44.50;;;;;;6288848;28;20028;-70
2022/04/20 05:04:46;;;;;;;2.97;1.48;;;15.20;44.30;;;;;;6287046;28;20056;-69
2022/04/20 05:07:47;;;;;;;2.65;1.33;;;15.30;44.30;;;;;;6287677;28;20037;-71
2022/04/20 05:10:52;;;;;;;2.45;1.20;;;15.30;44.20;;;;;;6288530;28;20134;-70
2022/04/20 05:13:53;;;;;;;6.82;1.38;;;15.30;44.10;;;;;;6293925;28;20025;-69
2022/04/20 05:16:55;;;;;;;6.25;1.50;;;15.40;44.00;;;;;;6288279;28;20040;-69
2022/04/20 05:19:56;;;;;;;2.33;1.48;;;15.40;44.00;;;;;;6292394;28;20376;-69
2022/04/20 05:22:58;;;;;;;19.42;1.58;;;15.40;44.10;;;;;;6287080;28;20064;-70
2022/04/20 05:26:02;;;;;;;3.05;1.58;;;15.40;44.40;;;;;;6286711;28;20039;-70
2022/04/20 05:29:06;;;;;;;4.50;1.60;;;15.40;44.50;;;;;;6287874;28;20112;-70
2022/04/20 05:32:16;;;;;;;2.30;1.45;;;15.40;44.70;;;;;;6289750;28;20043;-70
2022/04/20 05:35:16;;;;;;;5.63;1.83;;;15.40;44.70;;;;;;6291473;28;20040;-69
2022/04/20 05:41:42;;;;;;;3.03;1.67;;;15.40;44.60;;;;;;6291875;28;20041;-70
2022/04/20 05:44:56;;;;;;;4.32;1.60;;;15.40;44.70;;;;;;6291961;28;20119;-69
2022/04/20 05:48:01;;;;;;;3.17;1.63;;;15.40;44.70;;;;;;6292011;28;20032;-69
2022/04/20 05:51:02;;;;;;;4.75;1.70;;;15.50;44.90;;;;;;6274047;28;20032;-70
2022/04/20 05:54:04;;;;;;;3.00;1.80;;;15.40;44.90;;;;;;6293087;28;20039;-69
2022/04/20 05:57:08;;;;;;;8.80;1.80;;;15.40;45.10;;;;;;6292318;28;20042;-69
2022/04/20 06:00:13;;;;;;;3.78;1.50;;;15.40;45.10;;;;;;6291078;28;20032;-70
2022/04/20 06:03:17;;;;;;;3.95;1.95;;;15.40;45.20;;;;;;6293791;28;20044;-69
2022/04/20 06:06:20;;;;;;;4.60;1.75;;;15.40;45.30;;;;;;6275250;28;20036;-70
2022/04/20 06:09:24;;;;;;;2.28;1.55;;;15.40;45.30;;;;;;6283118;28;20044;-70
2022/04/20 06:12:34;;;;;;;7.32;2.08;;;15.40;45.20;;;;;;6291048;28;20112;-72
2022/04/20 06:15:54;;;;;;;2.97;1.65;;;15.40;45.00;;;;;;6290512;28;20582;-70
2022/04/20 06:18:58;;;;;;;3.17;1.65;;;15.40;44.80;;;;;;6292872;28;20020;-70
2022/04/20 06:22:01;;;;;;;3.13;1.60;;;15.50;44.70;;;;;;6293095;28;20361;-70
2022/04/20 06:25:21;;;;;;;5.28;2.10;;;15.50;44.60;;;;;;6290684;28;20052;-70
2022/04/20 06:28:39;;;;;;;5.65;1.60;;;15.60;44.50;;;;;;6290155;28;20024;-70
2022/04/20 06:31:58;;;;;;;9.57;2.17;;;15.60;45.00;;;;;;6290697;28;20032;-70
2022/04/20 06:35:18;;;;;;;4.00;2.15;;;15.70;44.30;;;;;;6290700;28;20449;-70
2022/04/20 06:38:38;;;;;;;4.35;2.03;;;15.70;44.20;;;;;;6290770;28;20365;-70
2022/04/20 06:41:58;;;;;;;4.35;2.28;;;15.80;44.20;;;;;;6293417;28;20032;-69
2022/04/20 06:45:26;;;;;;;3.47;1.88;;;15.80;44.20;;;;;;6285568;28;20477;-70
2022/04/20 06:48:44;;;;;;;5.55;2.28;;;15.90;44.10;;;;;;6289994;28;20115;-70
2022/04/20 06:58:42;;;;;;;4.55;2.20;;;16.10;43.80;;;;;;6286467;28;20060;-70
2022/04/20 07:01:51;;;;;;;4.88;2.10;;;16.30;43.90;;;;;;6307421;28;20033;-70
2022/04/20 07:05:12;;;;;;;15.32;2.58;;;16.30;43.90;;;;;;6196558;28;20038;-70
2022/04/20 07:08:37;;;;;;;12.50;2.70;;;16.40;43.90;;;;;;6142727;28;20473;-70
2022/04/20 07:11:52;;;;;;;3.90;2.10;;;16.50;43.70;;;;;;6138071;28;20058;-70
2022/04/20 07:14:53;;;;;;;4.80;2.03;;;16.50;43.30;;;;;;6142790;28;20090;-70
2022/04/20 07:17:54;;;;;;;4.55;2.25;;;16.50;43.10;;;;;;6142253;28;20055;-70
2022/04/20 07:21:15;;;;;;;3.88;2.20;;;16.60;43.00;;;;;;6020684;29;20041;-70
2022/04/20 07:24:23;;;;;;;4.38;2.30;;;16.70;42.80;;;;;;6022528;29;20128;-70
2022/04/20 07:27:33;;;;;;;6.90;2.30;;;16.80;42.50;;;;;;6024465;29;20050;-70
2022/04/20 07:30:58;;;;;;;7.68;2.88;;;16.90;42.30;;;;;;6024045;29;20034;-70
2022/04/20 07:34:17;;;;;;;6.35;2.35;;;17.10;42.20;;;;;;6021300;29;20780;-69
2022/04/20 07:37:32;;;;;;;5.85;2.70;;;17.20;41.90;;;;;;6008242;29;21721;-70
2022/04/20 07:40:52;;;;;;;5.43;2.85;;;17.20;41.70;;;;;;6026411;29;20036;-70
2022/04/20 07:44:13;;;;;;;7.28;2.33;;;17.20;41.70;;;;;;6107341;28;20736;-69
2022/04/20 07:47:40;;;;;;;6.10;2.72;;;17.30;41.80;;;;;;6173760;28;20118;-70
2022/04/20 07:51:10;;;;;;;8.38;2.75;;;17.30;41.70;;;;;;6177266;28;20035;-70
2022/04/20 07:54:46;;;;;;;8.25;2.72;;;17.40;41.90;;;;;;6117119;28;20036;-70
2022/04/20 07:57:59;;;;;;;6.88;2.78;;;17.50;41.60;;;;;;6161862;28;20049;-70
2022/04/20 08:01:16;;;;;;;6.25;3.10;;;17.60;41.40;;;;;;6186497;28;20046;-70
2022/04/20 08:04:29;;;;;;;7.57;2.75;;;17.70;41.00;;;;;;6188900;28;20260;-70
2022/04/20 08:07:39;;;;;;;6.85;2.95;;;17.80;40.80;;;;;;6191063;28;20046;-70
2022/04/20 08:10:40;;;;;;;9.50;2.08;;;18.00;40.60;;;;;;6188267;28;20053;-70
2022/04/20 08:17:19;;;;;;;2.22;1.50;;;18.20;40.30;;;;;;6188329;28;20096;-70
2022/04/20 08:20:53;;;;;;;12.48;2.40;;;18.40;40.00;;;;;;6171484;28;20057;-70
2022/04/20 08:23:54;;;;;;;8.25;2.05;;;18.70;39.60;;;;;;6182667;28;20041;-70
2022/04/20 08:26:55;;;;;;;6.82;1.92;;;18.90;39.50;;;;;;6188481;28;20038;-71
2022/04/20 08:29:57;;;;;;;8.00;2.40;;;19.10;38.90;;;;;;6275162;28;20438;-70
2022/04/20 08:32:58;;;;;;;5.50;1.83;;;19.20;38.50;;;;;;6264578;28;20422;-70
2022/04/20 08:35:59;;;;;;;11.50;1.60;;;19.30;38.10;;;;;;6262226;28;20044;-71
2022/04/20 08:39:00;;;;;;;4.68;1.80;;;19.40;37.60;;;;;;6264530;28;20086;-70
2022/04/20 08:42:02;;;;;;;3.20;1.42;;;19.50;37.40;;;;;;6259370;28;20261;-71
2022/04/20 08:45:04;;;;;;;1.85;1.23;;;19.50;37.00;;;;;;6263366;28;20036;-71
2022/04/20 08:48:06;;;;;;;4.93;1.95;;;19.60;37.00;;;;;;6262470;28;20037;-71
2022/04/20 08:51:07;;;;;;;6.03;2.33;;;19.80;36.90;;;;;;6263335;28;20338;-71
2022/04/20 08:54:08;;;;;;;3.33;2.53;;;20.00;36.60;;;;;;6260113;28;20040;-71
2022/04/20 08:57:15;;;;;;;5.57;2.67;;;20.10;36.40;;;;;;6262256;28;20434;-71
2022/04/20 09:00:22;;;;;;;7.18;3.70;;;20.20;36.30;;;;;;6266886;28;20037;-70
2022/04/20 09:03:24;;;;;;;4.77;2.87;;;20.30;36.00;;;;;;6262538;28;20323;-71
2022/04/20 09:06:25;;;;;;;4.43;2.03;;;20.40;36.10;;;;;;6269540;28;20082;-71
2022/04/20 09:09:29;;;;;;;4.28;1.92;;;20.50;36.70;;;;;;6263024;28;20442;-71
2022/04/20 09:12:30;;;;;;;4.80;1.75;;;20.70;35.80;;;;;;6274723;28;20072;-71
2022/04/20 09:15:32;;;;;;;4.63;1.58;;;20.90;35.50;;;;;;6267368;28;20043;-71
2022/04/20 09:18:34;;;;;;;3.05;1.70;;;21.00;35.00;;;;;;6282111;28;20045;-70
2022/04/20 09:21:35;;;;;;;4.57;1.73;;;21.10;34.60;;;;;;6292413;28;20432;-70
2022/04/20 09:24:36;;;;;;;5.50;2.83;;;21.30;34.40;;;;;;6291371;28;20101;-71
2022/04/20 09:27:42;;;;;;;16.13;1.83;;;21.40;34.10;;;;;;6274127;28;20124;-71
2022/04/20 09:30:43;;;;;;;7.80;2.00;;;21.60;33.80;;;;;;6281413;28;20037;-71
2022/04/20 09:33:49;;;;;;;11.25;5.50;;;21.70;33.60;;;;;;6294301;28;20036;-71
2022/04/20 09:36:50;;;;;;;9.65;3.40;;;21.80;33.30;;;;;;6275522;28;20040;-72
2022/04/20 09:39:51;;;;;;;13.25;2.10;;;21.90;33.30;;;;;;6293193;28;20033;-71
2022/04/20 09:43:02;;;;;;;2.50;1.20;;;22.00;33.00;;;;;;6288214;28;20174;-70
2022/04/20 09:49:30;;;;;;;4.97;1.50;;;22.10;32.10;;;;;;6289337;28;20364;-71
2022/04/20 09:52:42;;;;;;;5.63;1.55;;;22.20;32.00;;;;;;6291938;28;20042;-70
2022/04/20 09:55:43;;;;;;;7.20;1.10;;;22.20;31.70;;;;;;6297627;28;20048;-71
2022/04/20 09:58:47;;;;;;;2.55;1.45;;;22.30;31.40;;;;;;6291225;28;20044;-70
2022/04/20 10:01:48;;;;;;;4.32;1.00;;;22.30;31.10;;;;;;6289913;28;20051;-71
2022/04/20 10:04:49;;;;;;;4.07;1.33;;;22.30;30.80;;;;;;6291160;28;20036;-71
2022/04/20 10:07:58;;;;;;;7.07;1.55;;;22.50;30.60;;;;;;6288633;28;20101;-71
2022/04/20 10:11:00;;;;;;;4.53;1.50;;;22.60;30.60;;;;;;6292558;28;20048;-70
2022/04/20 10:17:24;;;;;;;5.47;1.20;;;22.80;30.50;;;;;;6308197;28;20119;-72
2022/04/20 10:20:26;;;;;;;5.40;1.60;;;23.00;30.30;;;;;;6292465;28;20109;-72
2022/04/20 10:23:31;;;;;;;4.65;1.20;;;23.00;29.80;;;;;;6293955;28;20509;-71
2022/04/20 10:26:34;;;;;;;2.95;1.58;;;23.10;29.80;;;;;;6291029;28;20060;-72
2022/04/20 10:29:42;;;;;;;2.53;1.20;;;23.20;29.60;;;;;;6292480;28;20044;-71
2022/04/20 10:32:51;;;;;;;1.70;1.27;;;23.30;29.70;;;;;;6286617;28;20357;-72
2022/04/20 10:36:01;;;;;;;4.47;1.27;;;23.50;29.40;;;;;;6308288;28;20063;-71
2022/04/20 10:39:23;;;;;;;2.13;1.20;;;23.70;29.00;;;;;;6290924;28;20029;-71
2022/04/20 10:42:33;;;;;;;4.88;1.30;;;23.90;28.40;;;;;;6291633;28;20032;-70
2022/04/20 10:45:35;;;;;;;4.40;1.20;;;24.00;27.50;;;;;;6291932;28;20024;-71
2022/04/20 10:48:58;;;;;;;1.88;1.02;;;24.20;27.10;;;;;;6290958;28;20043;-71
2022/04/20 10:52:19;;;;;;;2.15;1.00;;;24.60;26.60;;;;;;6289957;28;20032;-70
2022/04/20 10:55:32;;;;;;;2.10;1.10;;;24.90;26.10;;;;;;6290086;28;20067;-71
2022/04/20 10:58:34;;;;;;;1.27;0.90;;;25.40;25.60;;;;;;6297699;28;20044;-72
2022/04/20 11:02:03;;;;;;;2.60;1.17;;;25.80;25.20;;;;;;6289689;28;20040;-71
2022/04/20 11:05:14;;;;;;;1.02;0.90;;;26.00;25.00;;;;;;6282740;28;20040;-71
2022/04/20 11:08:15;;;;;;;2.05;1.17;;;26.10;24.90;;;;;;6289117;28;20144;-72
2022/04/20 11:22:00;;;;;;;1.90;1.40;;;26.60;24.60;;;;;;6305278;28;20468;-72
2022/04/20 11:25:02;;;;;;;2.20;1.40;;;26.80;24.50;;;;;;6287536;28;20418;-70
2022/04/20 11:28:03;;;;;;;1.98;1.20;;;27.00;24.40;;;;;;6288149;28;20050;-72
2022/04/20 11:31:04;;;;;;;6.40;1.15;;;27.10;24.30;;;;;;6288044;28;20036;-70
2022/04/20 11:34:06;;;;;;;2.10;1.10;;;27.20;24.30;;;;;;6286917;28;20364;-71
2022/04/20 11:37:07;;;;;;;1.60;1.17;;;27.10;24.40;;;;;;6288220;28;20104;-72
2022/04/20 11:40:12;;;;;;;2.60;1.42;;;27.10;24.40;;;;;;6287598;28;20317;-70
2022/04/20 11:43:14;;;;;;;3.30;1.17;;;27.10;24.50;;;;;;6286186;28;20036;-71
2022/04/20 11:46:16;;;;;;;2.58;1.13;;;27.10;24.70;;;;;;6289699;28;20471;-71
2022/04/20 11:49:18;;;;;;;1.75;1.23;;;27.00;24.70;;;;;;6282196;28;20447;-71
2022/04/20 11:52:26;;;;;;;5.00;1.35;;;27.00;24.80;;;;;;6293998;28;20054;-72
2022/04/20 11:55:52;;;;;;;6.95;1.52;;;27.00;24.90;;;;;;6282008;28;20663;-71
2022/04/20 11:58:53;;;;;;;5.50;1.35;;;27.00;25.00;;;;;;6270992;28;20094;-71
2022/04/20 12:01:55;;;;;;;3.75;1.30;;;27.10;25.20;;;;;;6288127;28;20032;-71
2022/04/20 12:05:07;;;;;;;3.92;1.25;;;26.90;25.10;;;;;;6285125;28;20131;-70
2022/04/20 12:08:09;;;;;;;2.15;1.25;;;26.80;25.10;;;;;;6286596;28;20372;-70
2022/04/20 12:11:11;;;;;;;3.35;1.40;;;26.90;25.20;;;;;;6290690;28;20404;-71
2022/04/20 12:14:12;;;;;;;6.10;1.95;;;26.90;25.10;;;;;;6286284;28;20044;-72
2022/04/20 12:17:20;;;;;;;2.53;1.27;;;26.90;25.20;;;;;;6295604;28;20051;-71
2022/04/20 12:20:23;;;;;;;;;;;26.80;25.30;;;;;;6288274;28;20060;-71
2022/04/20 12:23:32;;;;;;;2.92;1.38;;;26.70;25.50;;;;;;6286275;28;19946;-71
2022/04/20 12:26:33;;;;;;;4.00;1.67;;;26.60;25.70;;;;;;6287309;28;20036;-71
2022/04/20 12:29:34;;;;;;;3.67;1.75;;;26.40;25.80;;;;;;6287913;28;20040;-72
2022/04/20 12:32:35;;;;;;;5.15;1.50;;;26.30;26.00;;;;;;6292468;28;20036;-71
2022/04/20 12:35:37;;;;;;;5.75;1.63;;;26.30;26.20;;;;;;6291794;28;20036;-71
2022/04/20 12:38:59;;;;;;;7.32;2.17;;;26.20;26.30;;;;;;6288451;28;20140;-72
2022/04/20 12:42:08;;;;;;;2.17;1.40;;;25.90;26.50;;;;;;6289171;28;20059;-71
2022/04/20 12:45:20;;;;;;;3.45;1.67;;;25.80;26.70;;;;;;6285634;28;20686;-70
2022/04/20 12:48:21;;;;;;;3.97;1.50;;;25.70;26.90;;;;;;6295982;28;20043;-70
2022/04/20 12:51:23;;;;;;;7.10;1.70;;;25.70;27.00;;;;;;6295130;28;20032;-71
2022/04/20 12:54:25;;;;;;;2.97;1.73;;;25.70;27.10;;;;;;6294954;28;20051;-71
2022/04/20 13:04:08;;;;;;;2.92;1.45;;;25.80;27.40;;;;;;6292160;28;20040;-71
2022/04/20 13:07:09;;;;;;;12.73;1.92;;;25.60;27.60;;;;;;6309598;28;20037;-71
2022/04/20 13:10:10;;;;;;;6.57;2.13;;;25.50;27.80;;;;;;6293104;28;20114;-71
2022/04/20 13:13:11;;;;;;;6.85;1.70;;;25.40;28.00;;;;;;6294488;28;20464;-71
2022/04/20 13:16:20;;;;;;;11.10;1.95;;;25.30;28.10;;;;;;6277107;28;20028;-71
2022/04/20 13:19:21;;;;;;;3.55;1.88;;;25.30;28.30;;;;;;6292256;28;20044;-71
2022/04/20 13:22:22;;;;;;;4.05;2.08;;;25.20;28.40;;;;;;6293816;28;20428;-71
2022/04/20 13:28:42;;;;;;;9.25;2.08;;;25.00;28.80;;;;;;6287370;28;20043;-70
2022/04/20 13:31:44;;;;;;;8.75;2.47;;;24.90;29.10;;;;;;6291041;28;20450;-71
2022/04/20 13:34:45;;;;;;;5.60;1.92;;;24.80;29.30;;;;;;6292986;28;20037;-71
2022/04/20 13:37:46;;;;;;;3.33;1.73;;;24.70;29.60;;;;;;6294675;28;20478;-71
2022/04/20 13:40:48;;;;;;;6.95;2.00;;;24.60;29.90;;;;;;6292984;28;20075;-71
2022/04/20 13:43:49;;;;;;;8.02;2.17;;;24.50;30.00;;;;;;6293790;28;20493;-70
2022/04/20 13:46:50;;;;;;;3.55;2.10;;;24.40;30.20;;;;;;6292248;28;20043;-71
2022/04/20 13:49:50;;;;;;;6.53;1.85;;;24.20;30.40;;;;;;6291769;28;20052;-70
2022/04/20 13:52:54;;;;;;;5.00;2.22;;;24.10;31.20;;;;;;6293620;28;20121;-70
2022/04/20 13:55:55;;;;;;;8.50;2.20;;;24.00;30.80;;;;;;6290042;28;20310;-70
2022/04/20 13:58:56;;;;;;;7.63;1.90;;;23.90;31.00;;;;;;6291831;28;20049;-71
2022/04/20 14:01:57;;;;;;;4.07;1.75;;;23.80;31.30;;;;;;6290216;28;20035;-71
2022/04/20 14:04:59;;;;;;;6.78;2.00;;;23.70;31.50;;;;;;6290967;28;20488;-71
2022/04/20 14:08:00;;;;;;;4.65;2.30;;;23.60;31.80;;;;;;6292528;28;20037;-71
2022/04/20 14:11:01;;;;;;;5.60;2.25;;;23.50;32.60;;;;;;6292299;28;20476;-71
2022/04/20 14:14:02;;;;;;;7.28;2.05;;;23.40;32.30;;;;;;6293499;28;20028;-71
2022/04/20 14:17:03;;;;;;;12.10;2.20;;;23.30;32.60;;;;;;6294333;28;20131;-71
2022/04/20 14:20:04;;;;;;;5.88;1.77;;;23.20;32.80;;;;;;6272118;28;20039;-70
2022/04/20 14:23:05;;;;;;;6.00;2.25;;;23.10;33.00;;;;;;6291817;28;20051;-71
2022/04/20 14:32:48;;;;;;;8.50;1.70;;;23.00;33.60;;;;;;6291154;28;20042;-71
2022/04/20 14:35:49;;;;;;;8.80;1.80;;;22.90;34.00;;;;;;6291266;28;20047;-71
2022/04/20 14:38:50;;;;;;;6.10;2.08;;;22.90;34.20;;;;;;6299254;28;20461;-71
2022/04/20 14:41:51;;;;;;;4.15;2.22;;;22.80;34.30;;;;;;6289066;28;20117;-70
2022/04/20 14:44:52;;;;;;;6.05;2.35;;;22.80;34.40;;;;;;6291971;28;20108;-70
2022/04/20 14:47:53;;;;;;;4.55;2.15;;;22.80;34.60;;;;;;6287954;28;20047;-70
2022/04/20 14:50:54;;;;;;;2.88;1.58;;;22.80;34.80;;;;;;6293052;28;20386;-70
2022/04/20 14:53:57;;;;;;;3.65;2.10;;;22.80;34.80;;;;;;6291878;28;20044;-70
2022/04/20 14:56:58;;;;;;;3.22;2.00;;;22.80;34.90;;;;;;6287689;28;20048;-71
2022/04/20 14:59:58;;;;;;;3.90;2.28;;;22.80;35.00;;;;;;6292768;28;20037;-70
2022/04/20 15:03:01;;;;;;;5.70;2.20;;;22.80;35.20;;;;;;6289841;28;20044;-70
2022/04/20 15:06:02;;;;;;;8.40;2.08;;;22.80;35.20;;;;;;6290758;28;20032;-70
2022/04/20 15:09:04;;;;;;;5.45;2.50;;;22.90;35.20;;;;;;6289687;28;20063;-70
2022/04/20 15:12:08;;;;;;;3.70;2.50;;;23.00;35.40;;;;;;6289991;28;20033;-70
2022/04/20 15:15:09;;;;;;;6.30;2.20;;;23.00;35.50;;;;;;6288224;28;20032;-71
2022/04/20 15:18:10;;;;;;;3.80;2.05;;;23.00;35.80;;;;;;6291316;28;20133;-71
2022/04/20 15:21:11;;;;;;;4.05;2.50;;;22.90;36.00;;;;;;6273312;28;20119;-72
2022/04/20 15:24:12;;;;;;;4.55;2.30;;;22.80;36.20;;;;;;6289130;28;20469;-71
2022/04/20 15:27:13;;;;;;;4.40;2.40;;;22.80;36.50;;;;;;6291352;28;20043;-71
2022/04/20 15:30:14;;;;;;;4.15;2.30;;;22.70;36.80;;;;;;6288071;28;20449;-70
2022/04/20 15:33:15;;;;;;;11.00;4.60;;;22.60;36.90;;;;;;6289156;28;20040;-71
2022/04/20 15:36:19;;;;;;;7.80;2.40;;;22.60;37.20;;;;;;6289074;28;20044;-71
2022/04/20 15:39:20;;;;;;;5.65;2.45;;;22.60;37.50;;;;;;6290579;28;20338;-71
2022/04/20 15:42:21;;;;;;;7.63;2.70;;;22.50;37.90;;;;;;6291671;28;20037;-71
2022/04/20 15:45:22;;;;;;;4.75;2.42;;;22.40;38.10;;;;;;6292396;28;20037;-71
2022/04/20 15:48:24;;;;;;;4.93;2.38;;;22.30;38.40;;;;;;6291857;28;20071;-71
2022/04/20 15:51:26;;;;;;;5.03;2.30;;;22.20;38.60;;;;;;6290487;28;20060;-71
2022/04/20 15:54:29;;;;;;;4.18;2.97;;;22.20;38.80;;;;;;6290229;28;20032;-70
2022/04/20 16:00:50;;;;;;;4.88;2.13;;;22.00;39.20;;;;;;6285248;28;20032;-70
2022/04/20 16:03:51;;;;;;;7.13;2.78;;;21.90;39.30;;;;;;6291565;28;20373;-70
2022/04/20 16:06:52;;;;;;;2.83;2.22;;;21.90;39.60;;;;;;6285652;28;20033;-70
2022/04/20 16:09:53;;;;;;;6.05;2.40;;;21.80;39.90;;;;;;6289838;28;20033;-70
2022/04/20 16:12:54;;;;;;;3.85;2.10;;;21.80;40.00;;;;;;6289480;28;20112;-71
2022/04/20 16:15:55;;;;;;;4.15;1.88;;;21.70;40.00;;;;;;6286383;28;20407;-70
2022/04/20 16:18:56;;;;;;;4.10;2.40;;;21.60;40.20;;;;;;6290418;28;20105;-70
2022/04/20 16:21:57;;;;;;;2.72;1.90;;;21.50;40.40;;;;;;6289496;28;20028;-71
2022/04/20 16:24:58;;;;;;;3.92;1.92;;;21.50;40.60;;;;;;6288723;28;20100;-70
2022/04/20 16:28:02;;;;;;;2.97;2.25;;;21.50;40.80;;;;;;6286001;28;20055;-70
2022/04/20 16:31:03;;;;;;;6.75;2.33;;;21.40;40.80;;;;;;6291236;28;20369;-70
2022/04/20 16:34:04;;;;;;;8.55;2.22;;;21.40;40.80;;;;;;6291479;28;21274;-70
2022/04/20 16:37:05;;;;;;;4.25;2.38;;;21.40;40.80;;;;;;6289160;28;21578;-71
2022/04/20 16:40:06;;;;;;;4.05;2.00;;;21.40;41.00;;;;;;6285779;28;20137;-71
2022/04/20 16:43:08;;;;;;;4.55;2.30;;;21.30;41.20;;;;;;6287577;28;20044;-71
2022/04/20 16:46:09;;;;;;;9.27;2.33;;;21.30;41.40;;;;;;6289805;28;20105;-71
2022/04/20 16:49:11;;;;;;;2.15;1.70;;;21.20;41.50;;;;;;6291760;28;20037;-72
2022/04/20 16:52:15;;;;;;;3.25;2.10;;;21.20;41.70;;;;;;6289050;28;20041;-70
2022/04/20 16:55:16;;;;;;;3.45;2.10;;;21.10;41.80;;;;;;6277913;28;20478;-70
2022/04/20 16:58:17;;;;;;;3.17;1.92;;;21.10;41.80;;;;;;6289286;28;20178;-70